Kamenomostskiy, Russia
Current Conditions -  °F | °C
As of 1:30 PM on Friday 28 Nov 2014 (Local Time) from URSS Reporting Station
Overcast Overcast  
Wind Chill: 52°   Ceiling: 10000
Heat Index: 52°   Visibility: 6mi
Dew Point: 39°   Wind: 4mph
Humidity: 62%   Direction: 310°NW
Pressure: 30.27"   Gusts: 11mph
Location:  44.18°N, 40.14°E
Report Text: URSS 281030Z 31002G05MPS 9999 FEW030 OVC100 11/04 Q1025 NOSIGRMK R02/33001MPS MT OBSC QFE768 06000070 02000070
Loading
Personal Weather Stations






























Interactive Weather Map New forecast layout! Learn more

10-Day Weather Forecast

Advertisements
Track Severe Weather on mobile